Hlavní strana
METAR-TAF:

METAR-TAF

Letiště :

Lydd, Anglie

zeměpisná šířka: 50-57N, zeměpisná délka: 000-56E, výška: 3 m

Aktuální stav počasí

Zpráva byla vytvořena před 26 minutami, v 11:20 UTC
Západní vítr 13 kt
Teplota 8°C
Vlhkost vzduchu 76%
Tlak 1011 hPa
Viditelnost 10 km a více
Žádná oblačnost pod 1500 m, nevyskytují se cumulonimby.

METAR: EGMD 291120Z 26013KT CAVOK 08/04 Q1011

Čas: 11:46 (11:46 UTC)

Předpověď počasí

Zpráva byla vytvořena před 48 minutami, v 10:58 UTC
Předpověď platná od 29 v 12 UTC do 29 v 21 UTC
Západojihozápadní vítr 16 kt
Viditelnost 10 km a více
Skoro jasno ve výšce 3000 ft

TAF: EGMD 291058Z 2912/2921 25016KT 9999 FEW030

Stav a předpovědi počasí z více než 4 000 letišť (zprávy METAR a TAF).

Červené a žluté tečky na mapě představují dostupné meteorologické stanice.

Když kurzor umístíte na tečku, zobrazí se název stanice.

Pak kliknutím zobrazíte stav a předpověď počasí.

Chcete-li změnit mapu, kliknutím na zelené tlačítko se znaménkem +mapu přiblížíte, kliknutím na zelené tlačítko se znaménkem – mapu oddálíte a kliknutím na zelené šipky přejdete na sousední mapy.


METAR-TAF: